• Join FlightAware (Why Join?)
  • Login
  • US Flag 
01:10AM EDT


 

Airport Tracker/Info


-or-


 

Live Flight TrackerFlight Track Log ✈ N30898 ✈ 25-Jun-2013 ✈ KDKX - KMQY

Flight Track Log - Related Links

Times and Time Zones

All times are in EDT time to prevent confusion due to time zone crossing. See the N30898 flight status page for this flight to view local times or setup timezone preferences in your user account.

Time Position Orientation Groundspeed Altitude Reporting Facility
EDT Latitude Longitude Course Direction KTS MPH feet Rate Location/Type
05:23PM 35.9644 -83.9925 259° West 150 173 3,400  Level Atlanta Center
05:24PM 35.9478 -84.0414 247° West 155 178 4,200 300 Climbing Atlanta Center
05:25PM 35.9081 -84.0772 216° Southwest 162 186 4,000 300 Descending Atlanta Center
05:26PM 35.8725 -84.1181 223° Southwest 173 199 4,900 1,020 Climbing Atlanta Center
05:27PM 35.8664 -84.1694 262° West 167 192 6,100 1,200 Climbing Atlanta Center
05:28PM 35.8579 -84.4986 259° West  Level FlightAware Approximate
05:28PM 35.8619 -84.2283 265° West 162 186 7,300  Level Atlanta Center
05:29PM 35.8558 -84.2847 262° West 168 193 8,300 1,020 Climbing Atlanta Center
05:30PM 35.8494 -84.3411 262° West 168 193 9,400 780 Climbing Atlanta Center
05:31PM 35.8428 -84.4000 262° West 168 193 9,900 300 Climbing Atlanta Center
05:32PM 35.8364 -84.4614 263° West 178 205 10,000 600 Climbing Atlanta Center
05:33PM 35.8300 -84.5228 263° West 183 211 11,100 1,080 Climbing Atlanta Center
05:34PM 35.8233 -84.5869 263° West 183 211 12,200 1,140 Climbing Atlanta Center
05:35PM 35.8169 -84.6483 263° West 183 211 13,400 900 Climbing Atlanta Center
05:36PM 35.8103 -84.7097 262° West 183 211 14,000 300 Climbing Atlanta Center
05:37PM 35.8036 -84.7814 263° West 191 220 14,100  Climbing Atlanta Center
05:38PM 35.7928 -84.8528 259° West 206 237 14,100  Level Atlanta Center
05:39PM 35.7858 -84.9347 264° West 219 252 14,100  Level Atlanta Center
05:40PM 35.7739 -85.0506 263° West 219 252 14,100  Level Memphis Center
05:41PM 35.7669 -85.1303 264° West 219 252 14,100  Level Memphis Center
05:42PM 35.7597 -85.2050 263° West 219 252 14,100  Level Memphis Center
05:43PM 35.7542 -85.2769 265° West 219 252 14,100  Level Memphis Center
05:44PM 35.7531 -85.3511 269° West 219 252 14,100 -180 Level Memphis Center
05:45PM 35.7706 -85.4242 286° West 219 252 13,800 -600 Descending Memphis Center
05:46PM 35.7878 -85.4897 288° West 214 246 13,000 -840 Descending Memphis Center
05:47PM 35.8031 -85.5606 285° West 214 246 12,200 -840 Descending Memphis Center
05:48PM 35.8181 -85.6286 285° West 214 246 11,400 -840 Descending Memphis Center
05:49PM 35.8314 -85.6997 283° West 219 252 10,600 -840 Descending Memphis Center
05:50PM 35.8464 -85.7678 285° West 219 252 9,800 -840 Descending Memphis Center
05:51PM 35.8614 -85.8336 286° West 219 252 9,000 -900 Descending Memphis Center
05:52PM 35.8761 -85.8969 286° West 219 252 8,100 -900 Descending Memphis Center
05:53PM 35.8908 -85.9628 285° West 209 241 7,300 -840 Descending Memphis Center
05:54PM 35.9036 -86.0261 284° West 203 234 6,500 -840 Descending Memphis Center
05:55PM 35.9183 -86.0894 286° West 196 226 5,700 -900 Descending Memphis Center
05:56PM 35.9308 -86.1478 285° West 191 220 4,800 -900 Descending Memphis Center
05:57PM 35.9433 -86.2111 284° West 181 208 3,900 -840 Descending Memphis Center
05:58PM 35.9558 -86.2719 284° West 181 208 3,200 -480 Descending Memphis Center
05:59PM 35.9617 -86.3231 278° West 174 200 3,000 -180 Descending Memphis Center
06:00PM 35.9653 -86.3742 275° West 161 185 2,900 -600 Descending Memphis Center
06:01PM 35.9544 -86.4261 256° West 161 185 1,900 -720 Descending Memphis Center
06:02PM 35.9492 -86.4597 259° West 133 153 1,500 -180 Descending Memphis Center
06:04PM 35.9833 -86.4667 351° North 121 139 1,500  Level Nashville TRACON
06:06PM 36.0000 -86.5167 292° West  Level FlightAware Approximate
06:13PM 36.0090 -86.5201 292° West  Level Estimated
06:14PM 36.0090 -86.5201 292° West  Level Estimated
06:15PM 36.0090 -86.5201 292° West  Level Estimated
06:16PM 36.0090 -86.5201 292° West  Level Estimated
06:17PM 36.0090 -86.5201 292° West  Level Estimated
06:18PM 36.0090 -86.5201 292° West  Level Estimated